TimeCST,TemperatureF,Dew PointF,Humidity,Sea Level PressureIn,VisibilityMPH,Wind Direction,Wind SpeedMPH,Gust SpeedMPH,PrecipitationIn,Events,Conditions,WindDirDegrees,DateUTC
12:53 AM,12.0,8.1,84,30.15,7.0,WSW,3.5,-,N/A,,Clear,240,2013-02-25 06:53:00
1:53 AM,8.1,3.9,83,30.15,-9999.0,WNW,4.6,-,N/A,,Clear,290,2013-02-25 07:53:00
2:53 AM,12.0,10.0,92,30.14,-9999.0,WNW,5.8,-,N/A,,Clear,290,2013-02-25 08:53:00
3:53 AM,12.9,9.0,84,30.13,-9999.0,WNW,8.1,-,N/A,,Clear,300,2013-02-25 09:53:00
4:53 AM,9.0,6.1,88,30.13,-9999.0,NW,4.6,-,N/A,,Clear,310,2013-02-25 10:53:00
5:53 AM,3.2,-0.4,85,30.07,-9999.0,SW,3.5,-,N/A,,Clear,230,2013-02-25 11:53:00
6:53 AM,-0.0,-4.0,83,30.16,6.0,SW,5.8,-,N/A,,Clear,220,2013-02-25 12:53:00
7:53 AM,-0.0,-4.0,83,30.17,7.0,WSW,4.6,-,N/A,,Clear,240,2013-02-25 13:53:00
8:53 AM,3.0,-0.0,87,30.17,7.0,SSE,4.6,-,N/A,,Clear,150,2013-02-25 14:53:00
1:53 PM,25.0,18.0,75,30.09,10.0,South,8.1,-,N/A,,Clear,180,2013-02-25 19:53:00
2:53 PM,27.0,19.9,75,30.09,10.0,South,5.8,-,N/A,,Clear,190,2013-02-25 20:53:00
3:53 PM,28.9,21.0,72,30.06,10.0,South,5.8,-,N/A,,Clear,180,2013-02-25 21:53:00
4:53 PM,25.0,19.0,78,30.07,9.0,South,5.8,-,N/A,,Clear,190,2013-02-25 22:53:00
5:53 PM,19.0,14.0,81,30.09,8.0,South,6.9,-,N/A,,Clear,170,2013-02-25 23:53:00
6:53 PM,14.0,10.0,84,30.10,8.0,South,3.5,-,N/A,,Clear,170,2013-02-26 00:53:00
7:53 PM,9.0,6.1,88,30.10,6.0,SSE,8.1,-,N/A,,Clear,150,2013-02-26 01:53:00
8:53 PM,9.0,6.1,88,30.09,7.0,South,4.6,-,N/A,,Clear,180,2013-02-26 02:53:00
9:53 PM,9.0,5.0,84,30.07,4.0,Calm,Calm,-,N/A,,Clear,0,2013-02-26 03:53:00
10:28 PM,8.6,3.2,79,29.98,2.5,Calm,Calm,-,N/A,,Clear,0,2013-02-26 04:28:00
10:41 PM,6.8,3.2,85,29.98,1.5,Calm,Calm,-,N/A,,Clear,0,2013-02-26 04:41:00
10:53 PM,8.1,3.9,83,30.06,0.8,Calm,Calm,-,N/A,,Clear,0,2013-02-26 04:53:00
11:23 PM,3.2,-0.4,85,29.98,0.2,Calm,Calm,-,N/A,Fog,Light Freezing Fog,0,2013-02-26 05:23:00
11:33 PM,3.2,1.4,92,29.97,0.2,SSE,3.5,-,N/A,Fog,Light Freezing Fog,150,2013-02-26 05:33:00
11:40 PM,1.4,-0.4,92,29.97,0.2,SE,3.5,-,N/A,Fog,Light Freezing Fog,140,2013-02-26 05:40:00
11:49 PM,1.4,-0.4,92,29.98,1.0,SSE,3.5,-,N/A,,Mist,150,2013-02-26 05:49:00
11:53 PM,1.9,-0.9,88,30.07,0.5,SE,3.5,-,N/A,Fog,Light Freezing Fog,140,2013-02-26 05:53:00